createdAt,value
2023-03-30T00:01:21.023Z,3.97
2023-03-30T00:03:50.288Z,3.43
2023-03-30T00:06:22.691Z,3.20
2023-03-30T00:08:57.311Z,3.53
2023-03-30T00:11:26.808Z,2.90
2023-03-30T00:13:55.673Z,3.20
2023-03-30T00:16:24.420Z,3.00
2023-03-30T00:18:53.188Z,3.27
2023-03-30T00:21:21.639Z,3.50
2023-03-30T00:23:52.462Z,3.60
2023-03-30T00:26:21.344Z,3.10
2023-03-30T00:28:49.827Z,3.20
2023-03-30T00:31:18.267Z,3.77
2023-03-30T00:33:47.780Z,3.13
2023-03-30T00:36:17.058Z,3.23
2023-03-30T00:38:48.432Z,3.80
2023-03-30T00:41:18.788Z,3.20
2023-03-30T00:43:58.592Z,3.30
2023-03-30T00:46:27.090Z,3.50
2023-03-30T00:48:58.832Z,3.50
2023-03-30T00:51:28.792Z,3.40
2023-03-30T00:54:02.586Z,3.67
2023-03-30T00:56:32.813Z,3.00
2023-03-30T00:59:02.586Z,3.80
2023-03-30T01:01:38.846Z,3.00
2023-03-30T01:04:10.018Z,3.77
2023-03-30T01:06:40.806Z,3.77
2023-03-30T01:09:09.559Z,3.50
2023-03-30T01:11:39.580Z,3.80
2023-03-30T01:14:11.666Z,3.60
2023-03-30T01:16:50.400Z,3.10
2023-03-30T01:20:12.911Z,3.13
2023-03-30T01:23:37.632Z,3.30
2023-03-30T01:26:49.645Z,3.20
2023-03-30T01:29:45.678Z,3.47
2023-03-30T01:33:15.757Z,3.40
2023-03-30T01:36:24.753Z,2.90
2023-03-30T01:39:30.680Z,2.83
2023-03-30T01:42:04.714Z,3.50
2023-03-30T01:44:42.829Z,3.80
2023-03-30T01:47:19.304Z,3.40
2023-03-30T01:49:57.325Z,3.53
2023-03-30T01:52:31.781Z,2.60
2023-03-30T01:55:05.888Z,3.20
2023-03-30T01:57:40.913Z,3.17
2023-03-30T02:00:15.104Z,2.83
2023-03-30T02:02:49.914Z,3.80
2023-03-30T02:05:20.944Z,2.80
2023-03-30T02:07:54.727Z,3.37
2023-03-30T02:10:29.800Z,3.33
2023-03-30T02:13:00.470Z,3.10
2023-03-30T02:15:36.377Z,3.40
2023-03-30T02:18:05.444Z,3.17
2023-03-30T02:20:35.032Z,3.40
2023-03-30T02:23:06.161Z,3.20
2023-03-30T02:25:38.491Z,2.63
2023-03-30T02:28:08.405Z,3.90
2023-03-30T02:30:41.165Z,4.07
2023-03-30T02:33:14.788Z,3.77
2023-03-30T02:36:23.770Z,3.07
2023-03-30T02:39:22.370Z,2.90
2023-03-30T02:42:31.351Z,2.40
2023-03-30T02:45:15.849Z,3.33
2023-03-30T02:47:58.704Z,3.03
2023-03-30T02:50:36.113Z,4.60
2023-03-30T02:53:23.372Z,2.67
2023-03-30T02:56:03.957Z,2.57
2023-03-30T02:58:57.642Z,3.40
2023-03-30T03:01:33.951Z,2.80
2023-03-30T03:04:11.200Z,2.93
2023-03-30T03:06:52.846Z,3.30
2023-03-30T03:09:21.724Z,2.80
2023-03-30T03:11:50.144Z,3.70
2023-03-30T03:14:20.836Z,2.97
2023-03-30T03:16:49.517Z,3.40
2023-03-30T03:19:19.591Z,3.20
2023-03-30T03:21:51.739Z,2.63
2023-03-30T03:24:20.366Z,3.60
2023-03-30T03:27:08.607Z,3.40
2023-03-30T03:29:56.298Z,2.97
2023-03-30T03:32:24.623Z,2.93
2023-03-30T03:34:53.753Z,3.43
2023-03-30T03:37:22.436Z,3.40
2023-03-30T03:39:50.830Z,3.80
2023-03-30T03:42:19.437Z,3.13
2023-03-30T03:45:01.060Z,3.60
2023-03-30T03:47:29.739Z,4.10
2023-03-30T03:49:58.116Z,2.80
2023-03-30T03:52:26.606Z,3.33
2023-03-30T03:54:55.086Z,3.07
2023-03-30T03:57:24.001Z,3.97
2023-03-30T03:59:53.111Z,3.20
2023-03-30T04:02:24.048Z,3.10
2023-03-30T04:04:54.575Z,2.33
2023-03-30T04:07:25.532Z,3.03
2023-03-30T04:09:54.019Z,2.97
2023-03-30T04:12:46.058Z,3.70
2023-03-30T04:15:32.694Z,3.43
2023-03-30T04:18:33.502Z,3.20
2023-03-30T04:21:21.807Z,4.20
2023-03-30T04:24:03.416Z,2.90
2023-03-30T04:26:50.652Z,3.63
2023-03-30T04:29:34.549Z,3.53
2023-03-30T04:32:20.720Z,4.43
2023-03-30T04:34:55.900Z,4.13
2023-03-30T04:37:42.245Z,3.90
2023-03-30T04:40:35.392Z,3.87
2023-03-30T04:43:14.202Z,4.23
2023-03-30T04:46:03.165Z,4.17
2023-03-30T04:48:51.628Z,3.50
2023-03-30T04:51:21.662Z,3.70
2023-03-30T04:54:11.234Z,3.30
2023-03-30T04:57:16.251Z,2.97
2023-03-30T05:00:07.083Z,3.90
2023-03-30T05:02:55.286Z,3.63
2023-03-30T05:05:46.655Z,3.43
2023-03-30T05:08:44.449Z,3.77
2023-03-30T05:11:37.752Z,3.57
2023-03-30T05:14:38.390Z,4.43
2023-03-30T05:17:25.812Z,4.73
2023-03-30T05:20:15.150Z,3.93
2023-03-30T05:22:53.971Z,3.70
2023-03-30T05:25:56.205Z,3.63
2023-03-30T05:28:33.345Z,4.50
2023-03-30T05:31:29.896Z,4.40
2023-03-30T05:34:16.793Z,4.17
2023-03-30T05:37:11.401Z,4.20
2023-03-30T05:39:48.189Z,4.40
2023-03-30T05:42:38.182Z,4.70
2023-03-30T05:45:26.757Z,3.87
2023-03-30T05:48:01.201Z,4.30
2023-03-30T05:51:05.787Z,4.87
2023-03-30T05:53:45.222Z,3.73
2023-03-30T05:56:27.354Z,3.83
2023-03-30T05:59:16.268Z,3.97
2023-03-30T06:02:10.823Z,4.00
2023-03-30T06:04:40.134Z,4.03
2023-03-30T06:07:08.932Z,3.63
2023-03-30T06:09:37.544Z,3.60
2023-03-30T06:12:14.631Z,3.10
2023-03-30T06:14:44.344Z,4.50
2023-03-30T06:17:24.564Z,3.97
2023-03-30T06:19:52.909Z,3.43
2023-03-30T06:22:21.955Z,4.37
2023-03-30T06:25:01.880Z,4.60
2023-03-30T06:27:31.715Z,3.87
2023-03-30T06:30:01.866Z,3.50
2023-03-30T06:32:30.887Z,3.53
2023-03-30T06:35:03.785Z,4.20
2023-03-30T06:37:32.794Z,3.83
2023-03-30T06:40:01.237Z,3.67
2023-03-30T06:42:29.999Z,4.20
2023-03-30T06:45:17.486Z,4.53
2023-03-30T06:47:46.219Z,4.30
2023-03-30T06:50:14.707Z,4.57
2023-03-30T06:52:45.985Z,3.50
2023-03-30T06:55:15.418Z,3.80
2023-03-30T06:57:43.877Z,4.80
2023-03-30T07:00:14.310Z,3.40
2023-03-30T07:03:10.301Z,3.90
2023-03-30T07:05:45.922Z,3.77
2023-03-30T07:08:32.121Z,4.27
2023-03-30T07:11:00.591Z,4.70
2023-03-30T07:13:32.347Z,3.87
2023-03-30T07:16:00.692Z,5.53
2023-03-30T07:18:31.433Z,3.87
2023-03-30T07:21:00.621Z,3.80
2023-03-30T07:23:41.686Z,4.23
2023-03-30T07:26:12.619Z,3.57
2023-03-30T07:28:52.115Z,4.70
2023-03-30T07:31:22.123Z,5.50
2023-03-30T07:33:53.007Z,4.53
2023-03-30T07:36:25.718Z,4.90
2023-03-30T07:38:54.755Z,3.83
2023-03-30T07:41:23.946Z,5.00
2023-03-30T07:43:57.204Z,4.07
2023-03-30T07:46:26.038Z,4.00
2023-03-30T07:48:58.102Z,4.87
2023-03-30T07:51:28.453Z,3.93
2023-03-30T07:54:10.499Z,3.80
2023-03-30T07:56:54.474Z,4.73
2023-03-30T07:59:24.957Z,3.67
2023-03-30T08:01:56.187Z,3.33
2023-03-30T08:04:53.017Z,4.37
2023-03-30T08:07:35.504Z,3.30
2023-03-30T08:10:13.152Z,4.13
2023-03-30T08:12:42.196Z,3.97
2023-03-30T08:15:12.113Z,3.83
2023-03-30T08:17:41.306Z,4.10
2023-03-30T08:20:12.169Z,3.37
2023-03-30T08:22:40.765Z,4.30
2023-03-30T08:25:09.952Z,4.13
2023-03-30T08:27:38.445Z,3.90
2023-03-30T08:30:08.523Z,5.00
2023-03-30T08:32:36.916Z,6.13
2023-03-30T08:35:06.302Z,4.23
2023-03-30T08:37:36.390Z,3.80
2023-03-30T08:40:08.390Z,3.80
2023-03-30T08:43:23.634Z,3.80
2023-03-30T08:45:53.720Z,3.97
2023-03-30T08:48:26.002Z,4.00
2023-03-30T08:50:59.429Z,3.83
2023-03-30T08:53:31.847Z,3.90
2023-03-30T08:56:07.783Z,3.50
2023-03-30T08:58:44.850Z,3.50
2023-03-30T09:01:20.300Z,4.87
2023-03-30T09:04:03.765Z,3.10
2023-03-30T09:06:45.798Z,3.73
2023-03-30T09:09:19.320Z,3.70
2023-03-30T09:11:53.709Z,3.67
2023-03-30T09:14:33.256Z,3.97
2023-03-30T09:17:08.689Z,4.70
2023-03-30T09:19:47.475Z,3.43
2023-03-30T09:22:16.794Z,3.60
2023-03-30T09:24:46.743Z,3.90
2023-03-30T09:27:22.118Z,3.80
2023-03-30T09:29:52.048Z,3.97
2023-03-30T09:32:31.196Z,3.43
2023-03-30T09:35:07.789Z,4.00
2023-03-30T09:37:37.230Z,3.80
2023-03-30T09:40:28.167Z,4.07
2023-03-30T09:43:09.781Z,3.47
2023-03-30T09:45:38.889Z,3.60
2023-03-30T09:48:09.029Z,3.60
2023-03-30T09:50:42.308Z,4.53
2023-03-30T09:53:25.978Z,3.97
2023-03-30T09:56:02.850Z,3.40
2023-03-30T09:58:33.176Z,3.60
2023-03-30T10:01:12.499Z,3.27
2023-03-30T10:03:42.614Z,3.10
2023-03-30T10:06:13.930Z,3.60
2023-03-30T10:08:51.221Z,3.17
2023-03-30T10:11:33.198Z,3.90
2023-03-30T10:14:01.558Z,3.10
2023-03-30T10:16:33.280Z,3.47
2023-03-30T10:19:03.997Z,4.10
2023-03-30T10:21:38.538Z,3.70
2023-03-30T10:24:22.203Z,3.50
2023-03-30T10:26:56.749Z,3.50
2023-03-30T10:29:28.032Z,3.17
2023-03-30T10:32:02.149Z,3.50
2023-03-30T10:34:38.256Z,3.77
2023-03-30T10:37:11.641Z,3.97
2023-03-30T10:39:42.438Z,3.30
2023-03-30T10:42:18.435Z,3.20
2023-03-30T10:44:50.599Z,3.97
2023-03-30T10:47:45.664Z,3.70
2023-03-30T10:50:27.006Z,4.10
2023-03-30T10:53:10.511Z,3.70
2023-03-30T10:55:45.328Z,3.80
2023-03-30T10:58:31.159Z,2.83
2023-03-30T11:01:10.257Z,3.17
2023-03-30T11:03:41.507Z,3.43
2023-03-30T11:06:18.420Z,3.10
2023-03-30T11:08:50.752Z,3.50
2023-03-30T11:11:23.240Z,2.63
2023-03-30T11:14:01.813Z,3.00
2023-03-30T11:16:41.879Z,2.30
2023-03-30T11:19:16.125Z,2.60
2023-03-30T11:21:53.750Z,2.53
2023-03-30T11:24:24.775Z,2.67
2023-03-30T11:27:00.952Z,2.20
2023-03-30T11:29:43.720Z,2.73
2023-03-30T11:32:31.120Z,2.67
2023-03-30T11:35:08.112Z,2.57
2023-03-30T11:37:43.594Z,2.27
2023-03-30T11:40:19.969Z,2.97
2023-03-30T11:42:48.934Z,2.97
2023-03-30T11:45:41.290Z,2.67
2023-03-30T11:48:32.131Z,2.20
2023-03-30T11:51:17.169Z,2.87
2023-03-30T11:53:55.804Z,6.23
2023-03-30T11:56:35.693Z,4.50
2023-03-30T11:59:07.292Z,5.60
2023-03-30T12:02:01.130Z,3.20
2023-03-30T12:04:33.562Z,4.03
2023-03-30T12:07:03.690Z,3.40
2023-03-30T12:09:36.829Z,3.23
2023-03-30T12:12:17.674Z,3.03
2023-03-30T12:14:56.949Z,2.60
2023-03-30T12:17:42.304Z,3.30
2023-03-30T12:20:26.681Z,2.80
2023-03-30T12:23:00.136Z,3.07
2023-03-30T12:25:36.458Z,2.27
2023-03-30T12:28:12.776Z,2.83
2023-03-30T12:30:50.109Z,3.10
2023-03-30T12:33:29.377Z,2.67
2023-03-30T12:36:03.313Z,2.40
2023-03-30T12:38:43.579Z,2.10
2023-03-30T12:41:15.807Z,2.00
2023-03-30T12:44:06.557Z,1.90
2023-03-30T12:46:41.931Z,1.90
2023-03-30T12:49:24.267Z,1.70
2023-03-30T12:52:09.762Z,1.83
2023-03-30T12:55:03.002Z,2.00
2023-03-30T12:57:46.866Z,2.33
2023-03-30T13:00:51.931Z,2.43
2023-03-30T13:03:45.811Z,2.37
2023-03-30T13:06:27.066Z,2.20
2023-03-30T13:08:57.766Z,2.60
2023-03-30T13:11:26.613Z,1.50
2023-03-30T13:13:58.602Z,1.60
2023-03-30T13:16:49.933Z,1.50
2023-03-30T13:19:28.145Z,1.40
2023-03-30T13:22:19.973Z,1.70
2023-03-30T13:24:57.886Z,2.23
2023-03-30T13:27:31.062Z,1.43
2023-03-30T13:30:02.516Z,1.40
2023-03-30T13:33:04.734Z,2.10
2023-03-30T13:35:43.208Z,1.40
2023-03-30T13:38:37.782Z,1.53
2023-03-30T13:41:22.722Z,1.40
2023-03-30T13:44:05.831Z,1.07
2023-03-30T13:46:41.714Z,1.50
2023-03-30T13:49:35.074Z,1.30
2023-03-30T13:52:07.206Z,1.23
2023-03-30T13:54:39.914Z,1.37
2023-03-30T13:57:13.926Z,4.53
2023-03-30T13:59:47.378Z,1.27
2023-03-30T14:02:18.097Z,1.60
2023-03-30T14:04:49.127Z,1.70
2023-03-30T14:07:20.001Z,1.53
2023-03-30T14:10:06.346Z,1.00
2023-03-30T14:12:39.445Z,1.23
2023-03-30T14:15:19.314Z,1.10
2023-03-30T14:17:51.476Z,1.40
2023-03-30T14:20:40.861Z,1.00
2023-03-30T14:23:17.546Z,1.10
2023-03-30T14:25:47.324Z,1.50
2023-03-30T14:28:19.787Z,1.40
2023-03-30T14:30:53.296Z,1.43
2023-03-30T14:33:22.264Z,1.60
2023-03-30T14:35:53.597Z,1.70
2023-03-30T14:38:26.241Z,2.00
2023-03-30T14:40:56.321Z,1.40
2023-03-30T14:43:31.409Z,1.27
2023-03-30T14:46:06.189Z,1.20
2023-03-30T14:48:37.632Z,0.97
2023-03-30T14:51:24.601Z,0.87
2023-03-30T14:53:53.981Z,1.27
2023-03-30T14:56:24.544Z,0.87
2023-03-30T14:58:56.587Z,0.97
2023-03-30T15:01:31.412Z,0.97
2023-03-30T15:04:03.356Z,1.10
2023-03-30T15:06:33.341Z,1.30
2023-03-30T15:09:04.229Z,1.37
2023-03-30T15:11:34.992Z,1.30
2023-03-30T15:14:09.863Z,1.60
2023-03-30T15:16:39.277Z,1.50
2023-03-30T15:19:14.379Z,1.90
2023-03-30T15:21:43.313Z,2.00
2023-03-30T15:24:26.792Z,2.40
2023-03-30T15:26:58.309Z,2.33
2023-03-30T15:29:28.391Z,2.53
2023-03-30T15:32:09.359Z,1.80
2023-03-30T15:34:38.554Z,3.30
2023-03-30T15:37:23.394Z,3.57
2023-03-30T15:39:51.727Z,2.53
2023-03-30T15:42:27.050Z,2.80
2023-03-30T15:45:06.218Z,3.20
2023-03-30T15:47:35.528Z,2.03
2023-03-30T15:50:04.777Z,2.70
2023-03-30T15:52:36.501Z,1.50
2023-03-30T15:55:10.818Z,1.67
2023-03-30T15:57:47.290Z,1.70
2023-03-30T16:00:22.421Z,2.00
2023-03-30T16:02:57.656Z,1.57
2023-03-30T16:05:28.598Z,2.43
2023-03-30T16:07:57.616Z,1.60
2023-03-30T16:10:28.861Z,1.90
2023-03-30T16:12:58.959Z,2.20
2023-03-30T16:15:32.633Z,1.90
2023-03-30T16:18:01.155Z,1.70
2023-03-30T16:20:32.815Z,1.90
2023-03-30T16:23:01.420Z,1.43
2023-03-30T16:28:01.236Z,1.87
2023-03-30T16:30:35.139Z,1.80
2023-03-30T16:33:03.990Z,2.50
2023-03-30T16:35:32.989Z,1.47
2023-03-30T16:38:01.481Z,1.40
2023-03-30T16:40:34.856Z,1.40
2023-03-30T16:43:03.847Z,1.33
2023-03-30T16:45:34.251Z,1.20
2023-03-30T16:48:02.966Z,2.37
2023-03-30T16:50:38.809Z,1.70
2023-03-30T16:53:08.829Z,2.87
2023-03-30T16:55:38.863Z,2.57
2023-03-30T16:58:09.665Z,2.27
2023-03-30T17:00:43.169Z,2.13
2023-03-30T17:03:11.625Z,2.23
2023-03-30T17:05:40.969Z,2.10
2023-03-30T17:08:19.451Z,1.70
2023-03-30T17:10:48.402Z,2.17
2023-03-30T17:13:16.764Z,2.30
2023-03-30T17:15:46.676Z,1.67
2023-03-30T17:18:18.000Z,3.03
2023-03-30T17:20:49.233Z,2.43
2023-03-30T17:23:17.931Z,2.40
2023-03-30T17:25:49.265Z,2.17
2023-03-30T17:28:22.994Z,2.20
2023-03-30T17:30:55.752Z,2.47
2023-03-30T17:33:24.785Z,2.63
2023-03-30T17:35:57.088Z,1.97
2023-03-30T17:38:26.148Z,1.90
2023-03-30T17:40:54.494Z,1.37
2023-03-30T17:43:23.189Z,1.97
2023-03-30T17:45:53.033Z,1.33
2023-03-30T17:48:23.099Z,2.70
2023-03-30T17:50:52.385Z,1.80
2023-03-30T17:53:23.401Z,2.47
2023-03-30T17:55:53.553Z,2.07
2023-03-30T17:58:25.140Z,6.70
2023-03-30T18:00:55.301Z,2.50
2023-03-30T18:03:25.807Z,2.17
2023-03-30T18:05:54.878Z,2.23
2023-03-30T18:08:24.703Z,2.13
2023-03-30T18:10:54.296Z,5.63
2023-03-30T18:13:24.568Z,6.03
2023-03-30T18:15:56.809Z,7.50
2023-03-30T18:18:29.436Z,7.33
2023-03-30T18:21:02.482Z,7.10
2023-03-30T18:23:33.257Z,7.50
2023-03-30T18:26:03.806Z,4.90
2023-03-30T18:28:32.622Z,3.63
2023-03-30T18:31:02.958Z,6.40
2023-03-30T18:33:31.647Z,3.80
2023-03-30T18:36:05.135Z,4.73
2023-03-30T18:38:33.928Z,5.00
2023-03-30T18:41:02.275Z,3.77
2023-03-30T18:43:30.801Z,2.90
2023-03-30T18:46:02.230Z,2.10
2023-03-30T18:48:31.561Z,2.30
2023-03-30T18:50:59.985Z,2.73
2023-03-30T18:53:29.913Z,3.83
2023-03-30T18:56:00.878Z,4.23
2023-03-30T18:58:41.406Z,4.00
2023-03-30T19:01:12.918Z,4.27
2023-03-30T19:03:41.759Z,4.20
2023-03-30T19:06:14.084Z,3.27
2023-03-30T19:08:43.671Z,2.83
2023-03-30T19:11:16.783Z,3.67
2023-03-30T19:13:47.116Z,2.63
2023-03-30T19:16:18.781Z,3.30
2023-03-30T19:18:49.374Z,2.60
2023-03-30T19:21:18.998Z,3.27
2023-03-30T19:23:47.794Z,2.90
2023-03-30T19:26:16.336Z,2.57
2023-03-30T19:28:44.760Z,2.73
2023-03-30T19:31:16.306Z,3.00
2023-03-30T19:33:46.145Z,2.47
2023-03-30T19:36:14.654Z,2.10
2023-03-30T19:38:44.103Z,2.40
2023-03-30T19:41:12.807Z,2.60
2023-03-30T19:43:41.361Z,2.70
2023-03-30T19:46:09.821Z,3.30
2023-03-30T19:48:38.221Z,2.73
2023-03-30T19:51:08.158Z,1.93
2023-03-30T19:53:37.236Z,2.13
2023-03-30T19:56:11.562Z,2.80
2023-03-30T19:58:40.365Z,2.70
2023-03-30T20:01:10.414Z,2.60
2023-03-30T20:03:39.050Z,1.97
2023-03-30T20:06:11.643Z,1.93
2023-03-30T20:08:40.211Z,2.10
2023-03-30T20:11:09.640Z,2.13
2023-03-30T20:13:38.506Z,2.43
2023-03-30T20:16:07.237Z,2.63
2023-03-30T20:18:35.814Z,2.27
2023-03-30T20:21:05.018Z,2.67
2023-03-30T20:23:34.920Z,2.03
2023-03-30T20:26:04.491Z,1.93
2023-03-30T20:28:33.317Z,2.43
2023-03-30T20:31:02.298Z,1.70
2023-03-30T20:33:33.566Z,1.60
2023-03-30T20:36:02.214Z,2.30
2023-03-30T20:38:30.701Z,2.43
2023-03-30T20:41:04.138Z,2.30
2023-03-30T20:43:36.567Z,1.37
2023-03-30T20:46:14.039Z,1.40
2023-03-30T20:48:45.097Z,2.20
2023-03-30T20:51:15.837Z,1.63
2023-03-30T20:53:44.230Z,1.57
2023-03-30T20:56:13.914Z,1.70
2023-03-30T20:58:42.697Z,1.87
2023-03-30T21:01:18.001Z,1.90
2023-03-30T21:03:50.090Z,1.90
2023-03-30T21:06:23.636Z,2.10
2023-03-30T21:08:52.423Z,3.10
2023-03-30T21:11:23.003Z,2.07
2023-03-30T21:13:51.668Z,1.93
2023-03-30T21:16:20.132Z,1.63
2023-03-30T21:18:48.661Z,2.60
2023-03-30T21:21:17.394Z,2.10
2023-03-30T21:23:45.973Z,1.67
2023-03-30T21:26:15.023Z,2.03
2023-03-30T21:28:44.752Z,1.40
2023-03-30T21:31:16.462Z,1.50
2023-03-30T21:33:45.689Z,2.10
2023-03-30T21:36:14.519Z,1.53
2023-03-30T21:38:42.979Z,2.17
2023-03-30T21:41:14.120Z,1.70
2023-03-30T21:43:47.333Z,1.40
2023-03-30T21:46:18.682Z,1.60
2023-03-30T21:48:49.399Z,1.60
2023-03-30T21:51:21.705Z,1.87
2023-03-30T21:53:52.694Z,2.00
2023-03-30T21:56:23.636Z,2.20
2023-03-30T21:58:53.907Z,1.97
2023-03-30T22:01:24.456Z,1.63
2023-03-30T22:03:53.467Z,2.27
2023-03-30T22:06:23.409Z,2.10
2023-03-30T22:08:52.355Z,1.90
2023-03-30T22:11:23.881Z,1.80
2023-03-30T22:13:55.401Z,2.50
2023-03-30T22:16:28.270Z,1.40
2023-03-30T22:18:57.087Z,2.10
2023-03-30T22:21:29.232Z,2.07
2023-03-30T22:23:57.642Z,2.00
2023-03-30T22:26:27.294Z,1.60
2023-03-30T22:28:57.541Z,1.80
2023-03-30T22:31:26.685Z,1.73
2023-03-30T22:33:56.390Z,1.90
2023-03-30T22:36:29.932Z,1.67
2023-03-30T22:39:00.533Z,2.40
2023-03-30T22:41:30.042Z,1.90
2023-03-30T22:44:00.047Z,1.30
2023-03-30T22:46:29.344Z,2.17
2023-03-30T22:48:57.743Z,1.80
2023-03-30T22:51:27.175Z,1.87
2023-03-30T22:53:57.950Z,1.90
2023-03-30T22:56:27.414Z,2.40
2023-03-30T22:58:56.142Z,1.27
2023-03-30T23:01:25.881Z,1.30
2023-03-30T23:03:54.532Z,1.53
2023-03-30T23:06:22.915Z,1.67
2023-03-30T23:08:52.599Z,2.20
2023-03-30T23:11:21.874Z,1.43
2023-03-30T23:13:52.524Z,1.57
2023-03-30T23:16:20.860Z,1.50
2023-03-30T23:18:51.569Z,2.40
2023-03-30T23:21:22.219Z,2.43
2023-03-30T23:23:50.878Z,1.40
2023-03-30T23:26:19.523Z,1.67
2023-03-30T23:28:47.955Z,1.90
2023-03-30T23:31:18.909Z,2.00
2023-03-30T23:33:47.554Z,1.33
2023-03-30T23:36:19.210Z,1.60
2023-03-30T23:38:48.753Z,1.60
2023-03-30T23:41:19.946Z,1.60
2023-03-30T23:43:48.601Z,1.43
2023-03-30T23:46:17.233Z,1.80
2023-03-30T23:48:45.738Z,1.73
2023-03-30T23:51:14.038Z,2.30
2023-03-30T23:53:43.843Z,2.20
2023-03-30T23:56:13.919Z,1.83
2023-03-30T23:58:42.343Z,2.63
